createdAt,value
2022-12-07T00:00:01.637Z,95.69
2022-12-07T00:00:11.289Z,95.73
2022-12-07T00:00:21.316Z,95.78
2022-12-07T00:00:32.113Z,95.73
2022-12-07T00:00:42.113Z,95.63
2022-12-07T00:00:51.290Z,95.73
2022-12-07T00:01:01.324Z,95.69
2022-12-07T00:01:11.295Z,95.73
2022-12-07T00:01:21.453Z,95.59
2022-12-07T00:01:31.302Z,95.63
2022-12-07T00:01:41.442Z,95.48
2022-12-07T00:01:51.420Z,95.53
2022-12-07T00:02:01.375Z,95.28
2022-12-07T00:02:11.334Z,95.01
2022-12-07T00:02:21.339Z,95.01
2022-12-07T00:02:31.356Z,95.01
2022-12-07T00:02:41.400Z,94.90
2022-12-07T00:02:51.360Z,94.86
2022-12-07T00:03:01.333Z,94.80
2022-12-07T00:03:11.328Z,94.70
2022-12-07T00:03:21.324Z,94.80
2022-12-07T00:03:31.345Z,94.80
2022-12-07T00:03:41.361Z,94.90
2022-12-07T00:03:52.248Z,94.90
2022-12-07T00:04:01.272Z,94.90
2022-12-07T00:04:11.272Z,94.90
2022-12-07T00:04:21.267Z,94.96
2022-12-07T00:04:31.269Z,94.90
2022-12-07T00:04:42.355Z,94.90
2022-12-07T00:04:51.258Z,94.80
2022-12-07T00:05:01.286Z,94.76
2022-12-07T00:05:11.316Z,94.80
2022-12-07T00:05:21.250Z,94.80
2022-12-07T00:05:31.300Z,94.76
2022-12-07T00:05:41.282Z,94.76
2022-12-07T00:05:51.250Z,94.76
2022-12-07T00:06:01.297Z,94.80
2022-12-07T00:06:11.252Z,94.76
2022-12-07T00:06:21.279Z,94.80
2022-12-07T00:06:31.262Z,94.90
2022-12-07T00:06:41.298Z,94.76
2022-12-07T00:06:51.269Z,94.90
2022-12-07T00:07:01.256Z,94.90
2022-12-07T00:07:11.255Z,94.90
2022-12-07T00:07:26.310Z,94.86
2022-12-07T00:07:31.320Z,94.80
2022-12-07T00:07:41.318Z,94.80
2022-12-07T00:07:51.342Z,94.80
2022-12-07T00:08:01.308Z,94.80
2022-12-07T00:08:11.377Z,94.74
2022-12-07T00:08:21.334Z,94.55
2022-12-07T00:08:31.266Z,94.55
2022-12-07T00:08:41.243Z,94.45
2022-12-07T00:08:52.110Z,94.49
2022-12-07T00:09:01.233Z,94.49
2022-12-07T00:09:12.165Z,94.59
2022-12-07T00:09:21.241Z,94.49
2022-12-07T00:09:31.255Z,94.49
2022-12-07T00:09:41.247Z,94.59
2022-12-07T00:09:51.242Z,94.55
2022-12-07T00:10:01.602Z,94.55
2022-12-07T00:10:11.275Z,94.55
2022-12-07T00:10:21.375Z,94.70
2022-12-07T00:10:31.232Z,94.64
2022-12-07T00:10:41.266Z,94.65
2022-12-07T00:10:52.113Z,94.59
2022-12-07T00:11:01.257Z,94.49
2022-12-07T00:11:11.321Z,94.53
2022-12-07T00:11:21.228Z,94.49
2022-12-07T00:11:31.278Z,94.49
2022-12-07T00:11:42.276Z,94.45
2022-12-07T00:11:51.223Z,94.38
2022-12-07T00:12:01.227Z,94.28
2022-12-07T00:12:11.232Z,94.24
2022-12-07T00:12:21.220Z,94.18
2022-12-07T00:12:32.116Z,94.13
2022-12-07T00:12:41.226Z,94.13
2022-12-07T00:12:52.157Z,94.18
2022-12-07T00:13:01.377Z,94.28
2022-12-07T00:13:11.217Z,94.28
2022-12-07T00:13:21.217Z,94.38
2022-12-07T00:13:31.240Z,94.28
2022-12-07T00:13:41.215Z,94.18
2022-12-07T00:13:51.234Z,94.18
2022-12-07T00:14:01.229Z,94.13
2022-12-07T00:14:11.269Z,94.07
2022-12-07T00:14:21.233Z,94.18
2022-12-07T00:14:31.336Z,94.07
2022-12-07T00:14:41.214Z,94.03
2022-12-07T00:14:51.240Z,94.18
2022-12-07T00:15:01.234Z,94.28
2022-12-07T00:15:11.218Z,94.28
2022-12-07T00:15:21.221Z,94.28
2022-12-07T00:15:32.159Z,94.43
2022-12-07T00:15:41.224Z,94.24
2022-12-07T00:15:52.133Z,94.32
2022-12-07T00:16:01.294Z,94.18
2022-12-07T00:16:11.287Z,94.07
2022-12-07T00:16:22.217Z,94.01
2022-12-07T00:16:31.357Z,93.87
2022-12-07T00:16:41.269Z,93.93
2022-12-07T00:16:51.276Z,94.12
2022-12-07T00:17:01.313Z,94.03
2022-12-07T00:17:11.219Z,94.07
2022-12-07T00:17:21.353Z,93.97
2022-12-07T00:17:31.232Z,93.97
2022-12-07T00:17:41.212Z,93.97
2022-12-07T00:17:51.219Z,93.97
2022-12-07T00:18:01.201Z,93.97
2022-12-07T00:18:11.401Z,93.97
2022-12-07T00:18:22.155Z,93.91
2022-12-07T00:18:31.198Z,93.87
2022-12-07T00:18:42.126Z,93.87
2022-12-07T00:18:51.238Z,93.87
2022-12-07T00:19:01.200Z,93.97
2022-12-07T00:19:11.221Z,93.97
2022-12-07T00:19:21.245Z,93.97
2022-12-07T00:19:32.137Z,93.97
2022-12-07T00:19:42.139Z,93.72
2022-12-07T00:19:51.190Z,93.66
2022-12-07T00:20:01.734Z,93.55
2022-12-07T00:20:11.203Z,93.49
2022-12-07T00:20:21.269Z,93.45
2022-12-07T00:20:31.208Z,93.35
2022-12-07T00:20:41.184Z,93.35
2022-12-07T00:20:51.186Z,93.45
2022-12-07T00:21:01.200Z,93.45
2022-12-07T00:21:11.267Z,93.55
2022-12-07T00:21:21.205Z,93.66
2022-12-07T00:21:31.293Z,93.66
2022-12-07T00:21:41.210Z,93.76
2022-12-07T00:21:51.190Z,93.87
2022-12-07T00:22:01.188Z,93.76
2022-12-07T00:22:11.181Z,93.72
2022-12-07T00:22:21.199Z,93.91
2022-12-07T00:22:31.194Z,93.87
2022-12-07T00:22:41.238Z,93.87
2022-12-07T00:22:51.230Z,93.97
2022-12-07T00:23:01.196Z,93.97
2022-12-07T00:23:11.181Z,93.97
2022-12-07T00:23:21.238Z,93.87
2022-12-07T00:23:31.189Z,93.82
2022-12-07T00:23:41.174Z,93.87
2022-12-07T00:23:51.175Z,93.87
2022-12-07T00:24:01.229Z,93.87
2022-12-07T00:24:11.188Z,93.80
2022-12-07T00:24:21.287Z,93.91
2022-12-07T00:24:31.175Z,93.91
2022-12-07T00:24:41.181Z,93.87
2022-12-07T00:24:52.134Z,93.87
2022-12-07T00:25:01.178Z,93.97
2022-12-07T00:25:11.181Z,94.01
2022-12-07T00:25:21.180Z,93.97
2022-12-07T00:25:31.210Z,93.97
2022-12-07T00:25:41.249Z,93.97
2022-12-07T00:25:51.184Z,93.87
2022-12-07T00:26:01.331Z,93.87
2022-12-07T00:26:14.120Z,93.87
2022-12-07T00:26:21.179Z,94.03
2022-12-07T00:26:31.165Z,94.07
2022-12-07T00:26:41.163Z,94.07
2022-12-07T00:26:51.190Z,94.22
2022-12-07T00:27:01.213Z,94.28
2022-12-07T00:27:11.180Z,94.28
2022-12-07T00:27:21.179Z,94.18
2022-12-07T00:27:31.170Z,94.32
2022-12-07T00:27:41.162Z,94.24
2022-12-07T00:27:51.187Z,94.22
2022-12-07T00:28:01.162Z,94.22
2022-12-07T00:28:11.173Z,94.07
2022-12-07T00:28:21.152Z,94.07
2022-12-07T00:28:32.148Z,94.03
2022-12-07T00:28:41.182Z,94.07
2022-12-07T00:28:51.154Z,94.07
2022-12-07T00:29:01.168Z,94.18
2022-12-07T00:29:11.165Z,94.07
2022-12-07T00:29:21.206Z,93.97
2022-12-07T00:29:32.117Z,93.80
2022-12-07T00:29:41.173Z,93.76
2022-12-07T00:29:54.187Z,93.82
2022-12-07T00:30:02.465Z,93.87
2022-12-07T00:30:11.180Z,93.97
2022-12-07T00:30:21.147Z,94.03
2022-12-07T00:30:31.154Z,94.18
2022-12-07T00:30:41.194Z,94.28
2022-12-07T00:30:51.210Z,94.32
2022-12-07T00:31:01.150Z,94.28
2022-12-07T00:31:11.186Z,94.18
2022-12-07T00:31:22.143Z,94.22
2022-12-07T00:31:31.251Z,94.18
2022-12-07T00:31:41.195Z,94.22
2022-12-07T00:31:51.301Z,94.28
2022-12-07T00:32:02.289Z,94.28
2022-12-07T00:32:11.251Z,94.28
2022-12-07T00:32:21.229Z,94.28
2022-12-07T00:32:31.167Z,94.38
2022-12-07T00:32:41.205Z,94.43
2022-12-07T00:32:51.142Z,94.38
2022-12-07T00:33:01.168Z,94.43
2022-12-07T00:33:11.215Z,94.38
2022-12-07T00:33:21.250Z,94.38
2022-12-07T00:33:31.157Z,94.43
2022-12-07T00:33:41.212Z,94.38
2022-12-07T00:33:51.132Z,94.38
2022-12-07T00:34:01.170Z,94.24
2022-12-07T00:34:11.136Z,94.22
2022-12-07T00:34:21.151Z,94.32
2022-12-07T00:34:31.176Z,94.22
2022-12-07T00:34:41.127Z,94.28
2022-12-07T00:34:51.152Z,94.32
2022-12-07T00:35:01.126Z,94.28
2022-12-07T00:35:11.130Z,94.38
2022-12-07T00:35:21.139Z,94.43
2022-12-07T00:35:31.206Z,94.38
2022-12-07T00:35:41.135Z,94.38
2022-12-07T00:35:51.145Z,94.38
2022-12-07T00:36:01.132Z,94.28
2022-12-07T00:36:11.123Z,94.38
2022-12-07T00:36:26.387Z,94.38
2022-12-07T00:36:31.150Z,94.28
2022-12-07T00:36:41.149Z,94.24
2022-12-07T00:36:52.215Z,94.18
2022-12-07T00:37:01.127Z,94.22
2022-12-07T00:37:12.156Z,94.18
2022-12-07T00:37:21.150Z,94.28
2022-12-07T00:37:31.120Z,94.18
2022-12-07T00:37:43.627Z,94.12
2022-12-07T00:37:51.240Z,94.07
2022-12-07T00:38:01.119Z,94.07
2022-12-07T00:38:11.143Z,94.12
2022-12-07T00:38:21.133Z,93.91
2022-12-07T00:38:31.117Z,93.91
2022-12-07T00:38:41.124Z,93.76
2022-12-07T00:38:51.190Z,93.76
2022-12-07T00:39:01.150Z,93.76
2022-12-07T00:39:11.124Z,93.80
2022-12-07T00:39:21.116Z,93.76
2022-12-07T00:39:31.130Z,93.76
2022-12-07T00:39:41.249Z,93.80
2022-12-07T00:39:51.115Z,93.76
2022-12-07T00:40:01.687Z,93.66
2022-12-07T00:40:11.132Z,93.80
2022-12-07T00:40:21.102Z,93.66
2022-12-07T00:40:31.115Z,93.80
2022-12-07T00:40:41.120Z,93.87
2022-12-07T00:40:51.204Z,93.91
2022-12-07T00:41:01.621Z,93.91
2022-12-07T00:41:11.112Z,93.97
2022-12-07T00:41:21.112Z,93.97
2022-12-07T00:41:31.107Z,93.97
2022-12-07T00:41:41.097Z,94.01
2022-12-07T00:41:51.613Z,93.97
2022-12-07T00:42:01.121Z,94.12
2022-12-07T00:42:11.097Z,93.93
2022-12-07T00:42:21.114Z,93.82
2022-12-07T00:42:31.237Z,93.87
2022-12-07T00:42:41.100Z,93.91
2022-12-07T00:42:51.096Z,93.76
2022-12-07T00:43:01.143Z,93.66
2022-12-07T00:43:11.096Z,93.60
2022-12-07T00:43:21.094Z,93.60
2022-12-07T00:43:31.134Z,93.55
2022-12-07T00:43:41.091Z,93.62
2022-12-07T00:43:51.687Z,93.55
2022-12-07T00:44:01.156Z,93.55
2022-12-07T00:44:11.087Z,93.55
2022-12-07T00:44:21.264Z,93.55
2022-12-07T00:44:31.097Z,93.55
2022-12-07T00:44:41.098Z,93.66
2022-12-07T00:44:51.096Z,93.76
2022-12-07T00:45:01.089Z,93.72
2022-12-07T00:45:11.110Z,93.76
2022-12-07T00:45:21.227Z,93.87
2022-12-07T00:45:31.137Z,93.91
2022-12-07T00:45:41.171Z,93.76
2022-12-07T00:45:51.174Z,93.76
2022-12-07T00:46:01.157Z,93.80
2022-12-07T00:46:11.162Z,93.80
2022-12-07T00:46:21.200Z,93.76
2022-12-07T00:46:31.151Z,93.76
2022-12-07T00:46:41.199Z,93.76
2022-12-07T00:46:51.111Z,93.72
2022-12-07T00:47:01.095Z,93.66
2022-12-07T00:47:11.078Z,93.70
2022-12-07T00:47:21.110Z,93.60
2022-12-07T00:47:31.077Z,93.66
2022-12-07T00:47:41.621Z,93.55
2022-12-07T00:47:51.086Z,93.66
2022-12-07T00:48:01.093Z,93.60
2022-12-07T00:48:11.099Z,93.55
2022-12-07T00:48:21.120Z,93.45
2022-12-07T00:48:31.070Z,93.45
2022-12-07T00:48:41.101Z,93.49
2022-12-07T00:48:51.068Z,93.45
2022-12-07T00:49:01.090Z,93.55
2022-12-07T00:49:11.123Z,93.55
2022-12-07T00:49:21.638Z,93.55
2022-12-07T00:49:31.170Z,93.60
2022-12-07T00:49:41.067Z,93.45
2022-12-07T00:49:51.747Z,93.49
2022-12-07T00:50:01.567Z,93.49
2022-12-07T00:50:11.117Z,93.45
2022-12-07T00:50:21.070Z,93.45
2022-12-07T00:50:31.629Z,93.45
2022-12-07T00:50:41.112Z,93.49
2022-12-07T00:50:51.653Z,93.35
2022-12-07T00:51:01.068Z,93.49
2022-12-07T00:51:11.064Z,93.45
2022-12-07T00:51:21.062Z,93.39
2022-12-07T00:51:31.084Z,93.45
2022-12-07T00:51:41.058Z,93.45
2022-12-07T00:51:51.059Z,93.55
2022-12-07T00:52:01.105Z,93.60
2022-12-07T00:52:11.108Z,93.55
2022-12-07T00:52:21.271Z,93.66
2022-12-07T00:52:31.092Z,93.66
2022-12-07T00:52:41.063Z,93.70
2022-12-07T00:52:51.077Z,93.51
2022-12-07T00:53:01.098Z,93.45
2022-12-07T00:53:11.634Z,93.51
2022-12-07T00:53:21.064Z,93.45
2022-12-07T00:53:31.057Z,93.51
2022-12-07T00:53:42.252Z,93.55
2022-12-07T00:53:51.065Z,93.60
2022-12-07T00:54:01.058Z,93.55
2022-12-07T00:54:11.065Z,93.60
2022-12-07T00:54:21.163Z,93.55
2022-12-07T00:54:31.043Z,93.66
2022-12-07T00:54:41.055Z,93.60
2022-12-07T00:54:51.072Z,93.55
2022-12-07T00:55:01.635Z,93.60
2022-12-07T00:55:11.064Z,93.66
2022-12-07T00:55:21.075Z,93.66
2022-12-07T00:55:31.038Z,93.66
2022-12-07T00:55:41.051Z,93.55
2022-12-07T00:55:51.088Z,93.55
2022-12-07T00:56:01.038Z,93.55
2022-12-07T00:56:11.669Z,93.66
2022-12-07T00:56:21.078Z,93.60
2022-12-07T00:56:31.034Z,93.55
2022-12-07T00:56:41.045Z,93.55
2022-12-07T00:56:51.073Z,93.49
2022-12-07T00:57:01.032Z,93.51
2022-12-07T00:57:11.047Z,93.45
2022-12-07T00:57:21.030Z,93.55
2022-12-07T00:57:31.044Z,93.55
2022-12-07T00:57:41.057Z,93.55
2022-12-07T00:57:51.123Z,93.51
2022-12-07T00:58:01.027Z,93.45
2022-12-07T00:58:11.055Z,93.35
2022-12-07T00:58:21.033Z,93.35
2022-12-07T00:58:31.062Z,93.29
2022-12-07T00:58:41.063Z,93.35
2022-12-07T00:58:51.032Z,93.24
2022-12-07T00:59:01.034Z,93.24
2022-12-07T00:59:11.062Z,93.14
2022-12-07T00:59:21.032Z,93.29
2022-12-07T00:59:31.138Z,93.24
2022-12-07T00:59:41.031Z,93.24
2022-12-07T00:59:51.024Z,93.24
2022-12-07T01:00:01.380Z,93.24
2022-12-07T01:00:11.022Z,93.24
2022-12-07T01:00:21.047Z,93.14
2022-12-07T01:00:31.039Z,93.14
2022-12-07T01:00:41.624Z,92.99
2022-12-07T01:00:51.020Z,92.93
2022-12-07T01:01:01.253Z,92.97
2022-12-07T01:01:11.072Z,93.07
2022-12-07T01:01:21.064Z,92.93
2022-12-07T01:01:31.197Z,92.93
2022-12-07T01:01:41.133Z,92.99
2022-12-07T01:01:51.089Z,92.93
2022-12-07T01:02:01.627Z,92.93
2022-12-07T01:02:11.046Z,93.07
2022-12-07T01:02:21.015Z,93.10
2022-12-07T01:02:31.183Z,93.18
2022-12-07T01:02:41.010Z,93.24
2022-12-07T01:02:51.071Z,93.18
2022-12-07T01:03:01.064Z,93.14
2022-12-07T01:03:11.098Z,92.93
2022-12-07T01:03:21.725Z,92.82
2022-12-07T01:03:31.079Z,92.82
2022-12-07T01:03:41.025Z,92.82
2022-12-07T01:03:51.025Z,92.86
2022-12-07T01:04:01.001Z,92.93
2022-12-07T01:04:11.016Z,92.93
2022-12-07T01:04:21.059Z,92.99
2022-12-07T01:04:31.017Z,92.93
2022-12-07T01:04:41.099Z,93.03
2022-12-07T01:04:51.097Z,93.03
2022-12-07T01:05:01.007Z,93.03
2022-12-07T01:05:11.020Z,93.03
2022-12-07T01:05:21.002Z,93.03
2022-12-07T01:05:31.005Z,93.14
2022-12-07T01:05:41.008Z,93.03
2022-12-07T01:05:51.148Z,92.93
2022-12-07T01:06:01.001Z,92.93
2022-12-07T01:06:11.657Z,93.03
2022-12-07T01:06:21.156Z,92.99
2022-12-07T01:06:31.007Z,93.03
2022-12-07T01:06:41.008Z,93.03
2022-12-07T01:06:50.994Z,93.14
2022-12-07T01:07:00.999Z,93.03
2022-12-07T01:07:11.018Z,93.03
2022-12-07T01:07:20.987Z,92.99
2022-12-07T01:07:31.029Z,92.99
2022-12-07T01:07:41.198Z,93.14
2022-12-07T01:07:51.042Z,93.14
2022-12-07T01:08:01.062Z,93.14
2022-12-07T01:08:11.131Z,93.14
2022-12-07T01:08:21.169Z,93.14
2022-12-07T01:08:30.993Z,93.14
2022-12-07T01:08:40.991Z,92.99
2022-12-07T01:08:50.992Z,92.99
2022-12-07T01:09:01.648Z,93.03
2022-12-07T01:09:11.026Z,93.03
2022-12-07T01:09:20.985Z,92.99
2022-12-07T01:09:31.001Z,93.14
2022-12-07T01:09:40.991Z,92.93
2022-12-07T01:09:51.069Z,92.93
2022-12-07T01:10:01.887Z,92.97
2022-12-07T01:10:11.070Z,92.93
2022-12-07T01:10:20.993Z,92.93
2022-12-07T01:10:31.000Z,92.93
2022-12-07T01:10:40.978Z,92.93
2022-12-07T01:10:50.979Z,92.99
2022-12-07T01:11:01.010Z,93.14
2022-12-07T01:11:10.984Z,93.03
2022-12-07T01:11:20.985Z,93.03
2022-12-07T01:11:31.018Z,93.03
2022-12-07T01:11:40.980Z,93.03
2022-12-07T01:11:51.100Z,93.14
2022-12-07T01:12:01.012Z,93.24
2022-12-07T01:12:10.969Z,93.24
2022-12-07T01:12:20.982Z,93.35
2022-12-07T01:12:31.666Z,93.35
2022-12-07T01:12:40.975Z,93.35
2022-12-07T01:12:50.984Z,93.39
2022-12-07T01:13:00.970Z,93.45
2022-12-07T01:13:11.008Z,93.35
2022-12-07T01:13:20.990Z,93.45
2022-12-07T01:13:31.636Z,93.45
2022-12-07T01:13:40.985Z,93.35
2022-12-07T01:13:50.985Z,93.35
2022-12-07T01:14:00.965Z,93.35
2022-12-07T01:14:10.964Z,93.35
2022-12-07T01:14:20.989Z,93.35
2022-12-07T01:14:30.982Z,93.24
2022-12-07T01:14:41.174Z,93.20
2022-12-07T01:14:51.632Z,93.24
2022-12-07T01:15:01.066Z,93.24
2022-12-07T01:15:11.002Z,93.14
2022-12-07T01:15:21.005Z,93.10
2022-12-07T01:15:31.700Z,93.10
2022-12-07T01:15:41.071Z,93.10
2022-12-07T01:15:50.953Z,93.29
2022-12-07T01:16:01.020Z,93.14
2022-12-07T01:16:11.039Z,93.14
2022-12-07T01:16:21.023Z,93.29
2022-12-07T01:16:31.772Z,93.14
2022-12-07T01:16:41.056Z,93.14
2022-12-07T01:16:51.013Z,93.14
2022-12-07T01:17:00.999Z,93.18
2022-12-07T01:17:13.722Z,93.14
2022-12-07T01:17:21.638Z,93.14
2022-12-07T01:17:31.665Z,93.14
2022-12-07T01:17:40.986Z,93.14
2022-12-07T01:17:50.947Z,93.14
2022-12-07T01:18:00.957Z,93.14
2022-12-07T01:18:10.959Z,93.24
2022-12-07T01:18:20.954Z,93.24
2022-12-07T01:18:30.983Z,93.29
2022-12-07T01:18:41.003Z,93.35
2022-12-07T01:18:51.040Z,93.24
2022-12-07T01:19:00.960Z,93.24
2022-12-07T01:19:10.984Z,93.24
2022-12-07T01:19:20.950Z,93.20
2022-12-07T01:19:30.963Z,93.24
2022-12-07T01:19:40.942Z,93.35
2022-12-07T01:19:50.936Z,93.35
2022-12-07T01:20:01.198Z,93.35
2022-12-07T01:20:11.209Z,93.24
2022-12-07T01:20:20.939Z,93.30
2022-12-07T01:20:30.942Z,93.35
2022-12-07T01:20:41.674Z,93.24
2022-12-07T01:20:50.938Z,93.24
2022-12-07T01:21:00.974Z,93.45
2022-12-07T01:21:10.929Z,93.45
2022-12-07T01:21:20.965Z,93.55
2022-12-07T01:21:30.949Z,93.45
2022-12-07T01:21:40.930Z,93.55
2022-12-07T01:21:50.947Z,93.45
2022-12-07T01:22:00.980Z,93.51
2022-12-07T01:22:10.929Z,93.51
2022-12-07T01:22:20.949Z,93.51
2022-12-07T01:22:30.938Z,93.45
2022-12-07T01:22:40.928Z,93.55
2022-12-07T01:22:50.956Z,93.45
2022-12-07T01:23:01.019Z,93.55
2022-12-07T01:23:10.925Z,93.66
2022-12-07T01:23:20.930Z,93.55
2022-12-07T01:23:30.936Z,93.55
2022-12-07T01:23:40.926Z,93.45
2022-12-07T01:23:50.931Z,93.55
2022-12-07T01:24:00.925Z,93.66
2022-12-07T01:24:10.933Z,93.55
2022-12-07T01:24:22.138Z,93.66
2022-12-07T01:24:30.925Z,93.55
2022-12-07T01:24:40.934Z,93.55
2022-12-07T01:24:50.921Z,93.45
2022-12-07T01:25:00.918Z,93.35
2022-12-07T01:25:10.941Z,93.45
2022-12-07T01:25:21.079Z,93.35
2022-12-07T01:25:30.928Z,93.20
2022-12-07T01:25:40.935Z,93.39
2022-12-07T01:25:50.914Z,93.30
2022-12-07T01:26:00.928Z,93.35
2022-12-07T01:26:10.940Z,93.45
2022-12-07T01:26:20.920Z,93.24
2022-12-07T01:26:30.910Z,93.24
2022-12-07T01:26:40.942Z,93.24
2022-12-07T01:26:50.937Z,93.24
2022-12-07T01:27:00.933Z,93.29
2022-12-07T01:27:11.657Z,93.24
2022-12-07T01:27:20.916Z,93.24
2022-12-07T01:27:30.928Z,93.20
2022-12-07T01:27:40.979Z,93.14
2022-12-07T01:27:50.904Z,93.14
2022-12-07T01:28:00.930Z,93.14
2022-12-07T01:28:10.914Z,93.10
2022-12-07T01:28:20.920Z,93.14
2022-12-07T01:28:30.936Z,93.03
2022-12-07T01:28:40.921Z,93.14
2022-12-07T01:28:50.902Z,93.14
2022-12-07T01:29:00.903Z,93.14
2022-12-07T01:29:10.910Z,93.03
2022-12-07T01:29:20.894Z,93.03
2022-12-07T01:29:30.939Z,93.03
2022-12-07T01:29:40.895Z,93.03
2022-12-07T01:29:50.903Z,92.93
2022-12-07T01:30:01.498Z,92.93
2022-12-07T01:30:10.895Z,93.03
2022-12-07T01:30:20.944Z,92.93
2022-12-07T01:30:30.992Z,93.07
2022-12-07T01:30:40.902Z,92.93
2022-12-07T01:30:50.984Z,92.93
2022-12-07T01:31:01.073Z,93.03
2022-12-07T01:31:11.828Z,92.88
2022-12-07T01:31:21.798Z,92.82
2022-12-07T01:31:30.895Z,92.82
2022-12-07T01:31:40.896Z,92.78
2022-12-07T01:31:50.900Z,92.82
2022-12-07T01:32:01.651Z,92.93
2022-12-07T01:32:10.893Z,92.93
2022-12-07T01:32:20.932Z,92.88
2022-12-07T01:32:30.886Z,92.97
2022-12-07T01:32:40.904Z,93.03
2022-12-07T01:32:51.018Z,93.14
2022-12-07T01:33:00.880Z,93.03
2022-12-07T01:33:10.882Z,93.03
2022-12-07T01:33:20.888Z,93.10
2022-12-07T01:33:30.883Z,93.14
2022-12-07T01:33:40.889Z,93.10
2022-12-07T01:33:50.900Z,93.03
2022-12-07T01:34:00.896Z,93.10
2022-12-07T01:34:10.992Z,93.03
2022-12-07T01:34:20.880Z,93.03
2022-12-07T01:34:30.880Z,93.14
2022-12-07T01:34:40.895Z,93.14
2022-12-07T01:34:50.934Z,93.03
2022-12-07T01:35:01.070Z,92.99
2022-12-07T01:35:10.874Z,93.03
2022-12-07T01:35:20.873Z,93.03
2022-12-07T01:35:31.633Z,93.14
2022-12-07T01:35:41.020Z,93.18
2022-12-07T01:35:50.884Z,93.03
2022-12-07T01:36:00.875Z,93.14
2022-12-07T01:36:11.644Z,93.14
2022-12-07T01:36:20.864Z,93.24
2022-12-07T01:36:31.636Z,93.14
2022-12-07T01:36:40.879Z,93.24
2022-12-07T01:36:51.661Z,93.20
2022-12-07T01:37:00.990Z,93.24
2022-12-07T01:37:10.882Z,93.24
2022-12-07T01:37:20.885Z,93.35
2022-12-07T01:37:30.877Z,93.30
2022-12-07T01:37:40.864Z,93.35
2022-12-07T01:37:50.868Z,93.30
2022-12-07T01:38:00.881Z,93.35
2022-12-07T01:38:10.868Z,93.45
2022-12-07T01:38:21.650Z,93.45
2022-12-07T01:38:30.889Z,93.45
2022-12-07T01:38:40.862Z,93.35
2022-12-07T01:38:51.727Z,93.24
2022-12-07T01:39:00.884Z,93.24
2022-12-07T01:39:10.854Z,93.03
2022-12-07T01:39:20.966Z,92.99
2022-12-07T01:39:30.863Z,92.99
2022-12-07T01:39:40.898Z,93.14
2022-12-07T01:39:50.867Z,93.07
2022-12-07T01:40:01.256Z,93.07
2022-12-07T01:40:10.856Z,93.03
2022-12-07T01:40:20.881Z,93.03
2022-12-07T01:40:30.849Z,93.03
2022-12-07T01:40:40.852Z,93.03
2022-12-07T01:40:50.894Z,93.14
2022-12-07T01:41:00.852Z,93.14
2022-12-07T01:41:11.016Z,93.14
2022-12-07T01:41:20.888Z,93.14
2022-12-07T01:41:30.853Z,93.20
2022-12-07T01:41:40.843Z,93.14
2022-12-07T01:41:50.902Z,93.10
2022-12-07T01:42:00.851Z,93.03
2022-12-07T01:42:10.847Z,93.14
2022-12-07T01:42:20.932Z,93.24
2022-12-07T01:42:30.864Z,93.24
2022-12-07T01:42:40.855Z,93.14
2022-12-07T01:42:50.856Z,93.14
2022-12-07T01:43:01.639Z,93.14
2022-12-07T01:43:10.951Z,92.99
2022-12-07T01:43:20.846Z,93.14
2022-12-07T01:43:30.856Z,93.14
2022-12-07T01:43:40.853Z,93.14
2022-12-07T01:43:50.889Z,93.24
2022-12-07T01:44:01.075Z,93.20
2022-12-07T01:44:10.851Z,93.24
2022-12-07T01:44:20.849Z,93.24
2022-12-07T01:44:30.838Z,93.24
2022-12-07T01:44:40.857Z,93.14
2022-12-07T01:44:50.851Z,93.24
2022-12-07T01:45:00.847Z,93.14
2022-12-07T01:45:10.862Z,93.24
2022-12-07T01:45:21.639Z,93.24
2022-12-07T01:45:31.608Z,93.24
2022-12-07T01:45:40.849Z,93.24
2022-12-07T01:45:50.913Z,93.20
2022-12-07T01:46:00.947Z,93.35
2022-12-07T01:46:10.869Z,93.41
2022-12-07T01:46:20.859Z,93.41
2022-12-07T01:46:30.984Z,93.35
2022-12-07T01:46:40.882Z,93.24
2022-12-07T01:46:50.833Z,93.35
2022-12-07T01:47:00.844Z,93.35
2022-12-07T01:47:10.855Z,93.39
2022-12-07T01:47:20.826Z,93.35
2022-12-07T01:47:30.933Z,93.30
2022-12-07T01:47:40.888Z,93.20
2022-12-07T01:47:50.824Z,93.24
2022-12-07T01:48:00.840Z,93.24
2022-12-07T01:48:11.009Z,93.24
2022-12-07T01:48:20.830Z,93.24
2022-12-07T01:48:30.854Z,93.24
2022-12-07T01:48:40.860Z,93.24
2022-12-07T01:48:50.825Z,93.35
2022-12-07T01:49:00.844Z,93.24
2022-12-07T01:49:10.819Z,93.29
2022-12-07T01:49:20.838Z,93.35
2022-12-07T01:49:30.862Z,93.24
2022-12-07T01:49:40.848Z,93.24
2022-12-07T01:49:51.657Z,93.14
2022-12-07T01:50:01.280Z,93.14
2022-12-07T01:50:10.810Z,93.03
2022-12-07T01:50:20.825Z,92.99
2022-12-07T01:50:30.818Z,92.99
2022-12-07T01:50:40.811Z,92.99
2022-12-07T01:50:50.847Z,92.99
2022-12-07T01:51:00.948Z,92.99
2022-12-07T01:51:10.863Z,93.03
2022-12-07T01:51:21.647Z,93.03
2022-12-07T01:51:30.806Z,93.14
2022-12-07T01:51:40.813Z,93.14
2022-12-07T01:51:50.817Z,93.14
2022-12-07T01:52:00.850Z,93.10
2022-12-07T01:52:10.816Z,93.14
2022-12-07T01:52:21.640Z,93.29
2022-12-07T01:52:30.801Z,93.24
2022-12-07T01:52:40.811Z,93.20
2022-12-07T01:52:50.805Z,93.24
2022-12-07T01:53:00.801Z,93.35
2022-12-07T01:53:10.816Z,93.35
2022-12-07T01:53:20.796Z,93.39
2022-12-07T01:53:30.800Z,93.45
2022-12-07T01:53:40.816Z,93.49
2022-12-07T01:53:50.798Z,93.49
2022-12-07T01:54:00.793Z,93.49
2022-12-07T01:54:10.834Z,93.45
2022-12-07T01:54:20.803Z,93.55
2022-12-07T01:54:30.806Z,93.55
2022-12-07T01:54:40.823Z,93.66
2022-12-07T01:54:50.835Z,93.70
2022-12-07T01:55:00.799Z,93.55
2022-12-07T01:55:10.872Z,93.66
2022-12-07T01:55:21.728Z,93.80
2022-12-07T01:55:30.804Z,93.80
2022-12-07T01:55:40.881Z,93.76
2022-12-07T01:55:51.796Z,93.76
2022-12-07T01:56:00.789Z,93.72
2022-12-07T01:56:10.789Z,93.87
2022-12-07T01:56:20.865Z,93.76
2022-12-07T01:56:31.656Z,93.87
2022-12-07T01:56:40.793Z,93.76
2022-12-07T01:56:50.782Z,93.87
2022-12-07T01:57:00.797Z,93.87
2022-12-07T01:57:10.800Z,94.01
2022-12-07T01:57:20.788Z,93.97
2022-12-07T01:57:30.811Z,94.01
2022-12-07T01:57:40.850Z,93.97
2022-12-07T01:57:50.816Z,93.97
2022-12-07T01:58:00.971Z,94.07
2022-12-07T01:58:10.780Z,94.07
2022-12-07T01:58:20.790Z,94.07
2022-12-07T01:58:30.785Z,94.07
2022-12-07T01:58:40.771Z,94.07
2022-12-07T01:58:50.789Z,94.07
2022-12-07T01:59:01.648Z,94.18
2022-12-07T01:59:10.784Z,94.07
2022-12-07T01:59:23.687Z,94.12
2022-12-07T01:59:30.822Z,93.97
2022-12-07T01:59:40.777Z,93.97
2022-12-07T01:59:50.783Z,93.97
2022-12-07T02:00:01.066Z,93.87
2022-12-07T02:00:10.769Z,93.91
2022-12-07T02:00:20.803Z,93.87
2022-12-07T02:00:30.788Z,93.97
2022-12-07T02:00:40.777Z,93.97
2022-12-07T02:00:50.775Z,93.97
2022-12-07T02:01:00.912Z,94.07
2022-12-07T02:01:10.875Z,94.12
2022-12-07T02:01:21.699Z,94.22
2022-12-07T02:01:30.920Z,94.07
2022-12-07T02:01:40.857Z,94.07
2022-12-07T02:01:50.852Z,94.13
2022-12-07T02:02:00.840Z,94.18
2022-12-07T02:02:10.954Z,94.18
2022-12-07T02:02:20.925Z,94.22
2022-12-07T02:02:30.810Z,94.38
2022-12-07T02:02:40.871Z,94.28
2022-12-07T02:02:50.838Z,94.38
2022-12-07T02:03:00.876Z,94.38
2022-12-07T02:03:11.675Z,94.38
2022-12-07T02:03:20.764Z,94.38
2022-12-07T02:03:31.674Z,94.43
2022-12-07T02:03:41.819Z,94.53
2022-12-07T02:03:50.758Z,94.49
2022-12-07T02:04:00.764Z,94.49
2022-12-07T02:04:10.783Z,94.59
2022-12-07T02:04:20.760Z,94.49
2022-12-07T02:04:30.759Z,94.59
2022-12-07T02:04:40.765Z,94.59
2022-12-07T02:04:50.750Z,94.70
2022-12-07T02:05:01.645Z,94.59
2022-12-07T02:05:10.744Z,94.59
2022-12-07T02:05:20.744Z,94.59
2022-12-07T02:05:30.763Z,94.53
2022-12-07T02:05:40.759Z,94.38
2022-12-07T02:05:50.761Z,94.28
2022-12-07T02:06:00.739Z,94.22
2022-12-07T02:06:10.739Z,94.18
2022-12-07T02:06:21.652Z,94.12
2022-12-07T02:06:30.780Z,94.18
2022-12-07T02:06:40.780Z,94.18
2022-12-07T02:06:50.763Z,94.32
2022-12-07T02:07:00.748Z,94.18
2022-12-07T02:07:11.660Z,94.28
2022-12-07T02:07:20.742Z,94.32
2022-12-07T02:07:30.755Z,94.32
2022-12-07T02:07:41.718Z,94.53
2022-12-07T02:07:50.819Z,94.49
2022-12-07T02:08:00.830Z,94.49
2022-12-07T02:08:10.816Z,94.49
2022-12-07T02:08:20.850Z,94.59
2022-12-07T02:08:30.746Z,94.59
2022-12-07T02:08:40.738Z,94.59